createdAt,value
2019-05-10T00:00:15.260Z,91.36
2019-05-10T00:03:37.272Z,91.49
2019-05-10T00:06:59.303Z,91.28
2019-05-10T00:10:02.606Z,91.32
2019-05-10T00:13:15.429Z,91.38
2019-05-10T00:16:19.720Z,91.29
2019-05-10T00:19:23.993Z,91.23
2019-05-10T00:22:28.280Z,91.22
2019-05-10T00:25:32.559Z,91.19
2019-05-10T00:28:36.864Z,91.17
2019-05-10T00:31:41.126Z,91.46
2019-05-10T00:34:45.402Z,91.46
2019-05-10T00:37:49.698Z,91.62
2019-05-10T00:40:53.956Z,91.74
2019-05-10T00:43:58.271Z,92.05
2019-05-10T00:47:02.640Z,92.72
2019-05-10T00:50:07.045Z,92.72
2019-05-10T00:53:11.316Z,93.23
2019-05-10T00:56:15.612Z,93.23
2019-05-10T00:59:19.881Z,93.42
2019-05-10T01:02:24.280Z,93.57
2019-05-10T01:05:28.546Z,93.68
2019-05-10T01:08:32.865Z,93.84
2019-05-10T01:11:37.161Z,93.97
2019-05-10T01:14:41.524Z,94.00
2019-05-10T01:17:45.800Z,93.91
2019-05-10T01:20:50.088Z,93.88
2019-05-10T01:23:54.432Z,93.63
2019-05-10T01:26:58.694Z,93.67
2019-05-10T01:30:02.986Z,93.65
2019-05-10T01:33:07.272Z,93.73
2019-05-10T01:36:11.567Z,93.79
2019-05-10T01:39:15.841Z,93.84
2019-05-10T01:42:20.130Z,93.94
2019-05-10T01:45:24.404Z,93.91
2019-05-10T01:48:28.715Z,93.98
2019-05-10T01:51:33.018Z,94.17
2019-05-10T01:54:37.293Z,94.26
2019-05-10T01:57:41.589Z,94.40
2019-05-10T02:00:45.980Z,94.41
2019-05-10T02:03:50.235Z,94.45
2019-05-10T02:06:54.523Z,94.64
2019-05-10T02:09:58.819Z,94.37
2019-05-10T02:13:03.091Z,94.53
2019-05-10T02:16:07.403Z,94.31
2019-05-10T02:19:11.683Z,94.14
2019-05-10T02:22:15.979Z,93.90
2019-05-10T02:25:20.268Z,93.92
2019-05-10T02:28:24.545Z,93.88
2019-05-10T02:31:28.848Z,93.75
2019-05-10T02:34:33.137Z,93.60
2019-05-10T02:37:37.425Z,93.72
2019-05-10T02:40:41.700Z,93.83
2019-05-10T02:43:45.973Z,93.87
2019-05-10T02:46:50.239Z,93.59
2019-05-10T02:49:54.506Z,93.35
2019-05-10T02:52:58.774Z,93.43
2019-05-10T02:56:03.862Z,93.11
2019-05-10T02:59:09.748Z,93.13
2019-05-10T03:02:14.555Z,93.18
2019-05-10T03:05:18.830Z,93.06
2019-05-10T03:08:24.613Z,93.07
2019-05-10T03:11:32.218Z,93.02
2019-05-10T03:14:42.121Z,92.96
2019-05-10T03:17:47.715Z,92.82
2019-05-10T03:20:54.527Z,92.71
2019-05-10T03:23:58.860Z,92.71
2019-05-10T03:27:03.157Z,92.57
2019-05-10T03:30:07.688Z,92.35
2019-05-10T03:33:11.992Z,92.35
2019-05-10T03:36:16.263Z,92.49
2019-05-10T03:39:20.754Z,92.56
2019-05-10T03:42:25.031Z,92.61
2019-05-10T03:45:29.313Z,92.70
2019-05-10T03:48:33.601Z,92.85
2019-05-10T03:51:37.911Z,93.11
2019-05-10T03:54:42.320Z,93.16
2019-05-10T03:57:46.594Z,93.29
2019-05-10T04:00:50.893Z,93.38
2019-05-10T04:03:55.168Z,93.55
2019-05-10T04:06:59.460Z,93.77
2019-05-10T04:10:04.104Z,93.87
2019-05-10T04:13:08.422Z,93.91
2019-05-10T04:16:12.855Z,94.05
2019-05-10T04:19:17.258Z,94.16
2019-05-10T04:22:21.708Z,94.20
2019-05-10T04:25:26.142Z,93.88
2019-05-10T04:28:30.730Z,93.93
2019-05-10T04:31:35.422Z,93.84
2019-05-10T04:34:39.714Z,93.61
2019-05-10T04:37:44.014Z,93.50
2019-05-10T04:40:48.344Z,93.46
2019-05-10T04:43:52.653Z,93.60
2019-05-10T04:46:56.958Z,93.64
2019-05-10T04:50:01.255Z,93.38
2019-05-10T04:53:05.663Z,93.03
2019-05-10T04:56:09.993Z,92.75
2019-05-10T04:59:14.659Z,92.29
2019-05-10T05:02:22.080Z,91.96
2019-05-10T05:05:25.004Z,91.31
2019-05-10T05:08:29.291Z,91.27
2019-05-10T05:11:33.610Z,91.06
2019-05-10T05:14:37.894Z,90.39
2019-05-10T05:17:42.182Z,89.74
2019-05-10T05:20:46.488Z,89.82
2019-05-10T05:23:50.811Z,89.51
2019-05-10T05:26:55.127Z,89.49
2019-05-10T05:29:59.428Z,89.66
2019-05-10T05:33:03.737Z,89.15
2019-05-10T05:36:08.048Z,89.03
2019-05-10T05:39:12.374Z,88.93
2019-05-10T05:42:16.664Z,88.25
2019-05-10T05:45:21.001Z,87.19
2019-05-10T05:48:39.507Z,87.52
2019-05-10T05:51:31.533Z,87.25
2019-05-10T05:54:35.861Z,85.84
2019-05-10T05:57:40.234Z,85.84
2019-05-10T06:00:46.623Z,84.71
2019-05-10T06:03:50.724Z,84.47
2019-05-10T06:06:59.026Z,83.41
2019-05-10T06:10:02.026Z,84.09
2019-05-10T06:13:06.340Z,84.03
2019-05-10T06:16:12.853Z,84.50
2019-05-10T06:19:20.553Z,83.78
2019-05-10T06:22:22.688Z,83.72
2019-05-10T06:25:39.693Z,83.41
2019-05-10T06:28:57.352Z,82.59
2019-05-10T06:31:39.063Z,81.36
2019-05-10T06:34:43.388Z,82.18
2019-05-10T06:37:47.657Z,82.19
2019-05-10T06:40:51.936Z,82.36
2019-05-10T06:43:56.213Z,82.36
2019-05-10T06:47:02.205Z,82.51
2019-05-10T06:50:08.541Z,81.43
2019-05-10T06:53:12.851Z,81.43
2019-05-10T06:56:17.203Z,80.80
2019-05-10T06:59:25.057Z,79.53
2019-05-10T07:02:31.840Z,78.72
2019-05-10T07:05:33.623Z,78.39
2019-05-10T07:08:44.415Z,77.08
2019-05-10T07:11:43.984Z,77.75
2019-05-10T07:14:48.371Z,78.27
2019-05-10T07:17:52.725Z,78.07
2019-05-10T07:21:00.753Z,77.61
2019-05-10T07:24:03.186Z,78.45
2019-05-10T07:27:07.506Z,79.62
2019-05-10T07:30:12.004Z,80.13
2019-05-10T07:33:16.290Z,79.87
2019-05-10T07:36:26.997Z,80.60
2019-05-10T07:39:26.622Z,81.17
2019-05-10T07:42:30.893Z,81.28
2019-05-10T07:45:35.492Z,81.70
2019-05-10T07:48:41.093Z,82.28
2019-05-10T07:51:45.770Z,82.06
2019-05-10T07:54:50.088Z,81.22
2019-05-10T07:57:58.990Z,81.60
2019-05-10T08:01:00.381Z,81.98
2019-05-10T08:04:04.672Z,83.11
2019-05-10T08:07:10.473Z,84.15
2019-05-10T08:10:15.131Z,84.15
2019-05-10T08:13:23.320Z,86.03
2019-05-10T08:16:25.406Z,87.39
2019-05-10T08:19:32.779Z,87.53
2019-05-10T08:22:41.442Z,87.85
2019-05-10T08:25:46.759Z,89.09
2019-05-10T08:28:47.761Z,89.87
2019-05-10T08:31:55.691Z,90.88
2019-05-10T08:34:58.075Z,91.56
2019-05-10T08:38:04.535Z,91.77
2019-05-10T08:41:14.677Z,91.14
2019-05-10T08:44:19.276Z,91.14
2019-05-10T08:47:27.210Z,89.65
2019-05-10T08:50:44.046Z,89.15
2019-05-10T08:53:32.994Z,88.17
2019-05-10T08:56:37.256Z,87.95
2019-05-10T08:59:42.685Z,87.67
2019-05-10T09:02:47.104Z,86.85
2019-05-10T09:05:52.505Z,84.12
2019-05-10T09:09:01.517Z,84.12
2019-05-10T09:12:07.366Z,85.31
2019-05-10T09:15:10.187Z,85.17
2019-05-10T09:18:15.057Z,85.91
2019-05-10T09:21:19.376Z,87.39
2019-05-10T09:24:23.697Z,86.55
2019-05-10T09:27:29.072Z,86.77
2019-05-10T09:30:35.772Z,86.05
2019-05-10T09:33:42.951Z,86.05
2019-05-10T09:36:47.165Z,85.32
2019-05-10T09:39:54.929Z,84.39
2019-05-10T09:42:59.474Z,83.49
2019-05-10T09:46:03.669Z,84.62
2019-05-10T09:49:15.794Z,84.18
2019-05-10T09:52:18.302Z,84.61
2019-05-10T09:55:20.105Z,83.73
2019-05-10T09:58:24.421Z,84.96
2019-05-10T10:01:28.887Z,83.66
2019-05-10T10:04:33.256Z,83.21
2019-05-10T10:07:37.565Z,83.90
2019-05-10T10:10:42.062Z,82.74
2019-05-10T10:13:51.997Z,82.27
2019-05-10T10:16:58.251Z,82.28
2019-05-10T10:19:58.430Z,81.55
2019-05-10T10:23:02.777Z,80.76
2019-05-10T10:26:07.312Z,79.79
2019-05-10T10:29:11.625Z,80.91
2019-05-10T10:32:15.908Z,81.81
2019-05-10T10:35:26.517Z,82.06
2019-05-10T10:38:30.657Z,82.06
2019-05-10T10:41:32.221Z,81.02
2019-05-10T10:44:37.134Z,81.08
2019-05-10T10:47:41.501Z,80.32
2019-05-10T10:50:52.693Z,81.13
2019-05-10T10:53:54.583Z,81.38
2019-05-10T10:56:59.671Z,81.33
2019-05-10T11:00:03.878Z,81.78
2019-05-10T11:03:08.197Z,82.35
2019-05-10T11:06:15.362Z,82.35
2019-05-10T11:09:20.592Z,82.36
2019-05-10T11:12:24.542Z,81.56
2019-05-10T11:15:35.579Z,81.26
2019-05-10T11:18:35.046Z,81.62
2019-05-10T11:21:41.523Z,83.01
2019-05-10T11:24:45.323Z,83.01
2019-05-10T11:27:53.913Z,82.00
2019-05-10T11:30:55.620Z,82.20
2019-05-10T11:34:01.567Z,81.35
2019-05-10T11:37:05.957Z,79.35
2019-05-10T11:40:11.369Z,78.45
2019-05-10T11:43:17.278Z,79.01
2019-05-10T11:46:23.799Z,78.17
2019-05-10T11:49:30.615Z,77.55
2019-05-10T11:52:34.725Z,77.05
2019-05-10T11:55:43.030Z,75.91
2019-05-10T11:58:53.154Z,76.19
2019-05-10T12:01:57.930Z,74.99
2019-05-10T12:05:01.221Z,75.22
2019-05-10T12:08:04.220Z,74.65
2019-05-10T12:14:14.503Z,74.16
2019-05-10T12:17:18.814Z,72.39
2019-05-10T12:20:39.543Z,72.93
2019-05-10T12:23:31.471Z,73.83
2019-05-10T12:26:50.632Z,74.16
2019-05-10T12:29:41.085Z,75.24
2019-05-10T12:32:55.706Z,75.88
2019-05-10T12:35:51.443Z,75.25
2019-05-10T12:38:56.719Z,75.16
2019-05-10T12:42:01.720Z,75.98
2019-05-10T12:45:06.540Z,75.21
2019-05-10T12:48:10.809Z,74.68
2019-05-10T12:51:16.335Z,75.50
2019-05-10T12:54:23.967Z,75.17
2019-05-10T12:57:26.988Z,74.64
2019-05-10T13:00:31.264Z,74.93
2019-05-10T13:03:35.551Z,75.77
2019-05-10T13:06:39.926Z,75.87
2019-05-10T13:09:44.244Z,75.22
2019-05-10T13:12:48.567Z,75.54
2019-05-10T13:15:52.865Z,75.31
2019-05-10T13:18:57.151Z,76.17
2019-05-10T13:22:01.441Z,76.32
2019-05-10T13:25:06.032Z,76.27
2019-05-10T13:28:11.427Z,77.55
2019-05-10T13:31:16.120Z,78.73
2019-05-10T13:34:24.280Z,79.68
2019-05-10T13:37:27.808Z,80.43
2019-05-10T13:40:32.094Z,81.12
2019-05-10T13:43:36.393Z,80.90
2019-05-10T13:46:40.696Z,80.08
2019-05-10T13:49:48.503Z,80.08
2019-05-10T13:52:50.994Z,78.27
2019-05-10T13:55:55.295Z,79.21
2019-05-10T13:59:13.957Z,78.91
2019-05-10T14:02:05.623Z,77.48
2019-05-10T14:05:17.549Z,76.58
2019-05-10T14:08:19.402Z,76.41
2019-05-10T14:11:23.720Z,76.55
2019-05-10T14:14:28.009Z,76.68
2019-05-10T14:17:32.298Z,77.40
2019-05-10T14:20:36.575Z,77.50
2019-05-10T14:23:40.859Z,77.67
2019-05-10T14:26:45.156Z,77.53
2019-05-10T14:29:49.462Z,78.37
2019-05-10T14:32:53.764Z,78.97
2019-05-10T14:36:01.074Z,78.08
2019-05-10T14:39:06.341Z,76.80
2019-05-10T14:42:10.629Z,76.90
2019-05-10T14:45:15.032Z,75.95
2019-05-10T14:48:28.002Z,74.96
2019-05-10T14:51:40.410Z,74.44
2019-05-10T14:54:43.253Z,73.65
2019-05-10T14:57:37.405Z,73.94
2019-05-10T15:00:41.667Z,74.06
2019-05-10T15:03:47.471Z,74.28
2019-05-10T15:06:51.858Z,74.03
2019-05-10T15:10:00.172Z,72.17
2019-05-10T15:13:02.188Z,72.46
2019-05-10T15:16:09.656Z,72.72
2019-05-10T15:19:12.511Z,73.34
2019-05-10T15:22:18.482Z,73.64
2019-05-10T15:25:22.783Z,73.06
2019-05-10T15:28:27.054Z,72.01
2019-05-10T15:31:31.355Z,71.67
2019-05-10T15:34:35.628Z,72.17
2019-05-10T15:37:46.000Z,72.08
2019-05-10T15:40:46.136Z,72.42
2019-05-10T15:43:53.554Z,72.52
2019-05-10T15:46:56.349Z,73.02
2019-05-10T15:50:01.658Z,73.32
2019-05-10T15:53:06.088Z,73.27
2019-05-10T15:56:10.379Z,73.25
2019-05-10T15:59:19.218Z,73.30
2019-05-10T16:02:20.619Z,72.95
2019-05-10T16:05:42.095Z,72.66
2019-05-10T16:08:32.049Z,72.86
2019-05-10T16:11:36.415Z,72.09
2019-05-10T16:14:41.189Z,70.19
2019-05-10T16:17:46.699Z,69.91
2019-05-10T16:20:50.989Z,70.44
2019-05-10T16:23:55.276Z,68.82
2019-05-10T16:27:01.562Z,68.77
2019-05-10T16:30:06.189Z,68.12
2019-05-10T16:33:15.605Z,66.76
2019-05-10T16:36:16.508Z,65.04
2019-05-10T16:39:20.808Z,65.04
2019-05-10T16:42:27.990Z,63.31
2019-05-10T16:45:31.197Z,62.37
2019-05-10T16:48:35.475Z,60.85
2019-05-10T16:51:42.461Z,60.80
2019-05-10T16:54:45.764Z,59.46
2019-05-10T16:57:50.048Z,59.24
2019-05-10T17:00:54.320Z,59.98
2019-05-10T17:04:00.339Z,60.60
2019-05-10T17:07:04.617Z,60.54
2019-05-10T17:10:08.906Z,59.71
2019-05-10T17:13:13.182Z,59.29
2019-05-10T17:16:19.284Z,57.26
2019-05-10T17:19:27.979Z,57.70
2019-05-10T17:22:29.581Z,57.70
2019-05-10T17:25:35.477Z,59.72
2019-05-10T17:28:39.933Z,59.72
2019-05-10T17:31:45.681Z,60.47
2019-05-10T17:34:50.233Z,59.62
2019-05-10T17:37:54.582Z,60.62
2019-05-10T17:40:58.865Z,60.79
2019-05-10T17:44:03.206Z,61.65
2019-05-10T17:47:07.516Z,62.07
2019-05-10T17:50:11.992Z,62.82
2019-05-10T17:53:16.297Z,63.86
2019-05-10T17:56:20.632Z,64.56
2019-05-10T17:59:24.935Z,65.21
2019-05-10T18:02:29.218Z,64.25
2019-05-10T18:05:33.521Z,64.24
2019-05-10T18:08:37.830Z,63.68
2019-05-10T18:11:42.873Z,62.85
2019-05-10T18:14:50.166Z,62.36
2019-05-10T18:17:57.522Z,63.02
2019-05-10T18:21:00.185Z,62.98
2019-05-10T18:24:04.479Z,63.83
2019-05-10T18:27:08.804Z,64.14
2019-05-10T18:30:13.409Z,65.06
2019-05-10T18:33:17.775Z,66.07
2019-05-10T18:36:24.799Z,67.31
2019-05-10T18:39:28.080Z,68.03
2019-05-10T18:42:32.395Z,68.81
2019-05-10T18:45:36.693Z,69.82
2019-05-10T18:48:40.988Z,68.94
2019-05-10T18:51:45.336Z,69.26
2019-05-10T18:54:49.649Z,69.64
2019-05-10T18:57:53.977Z,69.47
2019-05-10T19:01:00.550Z,69.95
2019-05-10T19:04:07.274Z,70.45
2019-05-10T19:07:10.585Z,69.98
2019-05-10T19:10:14.917Z,70.20
2019-05-10T19:13:19.642Z,70.21
2019-05-10T19:16:25.965Z,70.25
2019-05-10T19:19:35.223Z,70.92
2019-05-10T19:22:41.267Z,71.31
2019-05-10T19:25:45.664Z,71.66
2019-05-10T19:28:48.663Z,71.99
2019-05-10T19:31:53.242Z,72.35
2019-05-10T19:34:59.000Z,72.94
2019-05-10T19:38:03.528Z,73.49
2019-05-10T19:41:08.055Z,74.01
2019-05-10T19:44:12.417Z,74.62
2019-05-10T19:47:18.173Z,75.02
2019-05-10T19:50:30.323Z,75.29
2019-05-10T19:53:29.015Z,75.37
2019-05-10T19:56:36.591Z,75.87
2019-05-10T19:59:43.919Z,76.51
2019-05-10T20:02:47.167Z,76.94
2019-05-10T20:05:51.551Z,77.18
2019-05-10T20:08:55.907Z,77.43
2019-05-10T20:12:00.305Z,77.74
2019-05-10T20:15:04.831Z,78.15
2019-05-10T20:18:09.233Z,78.46
2019-05-10T20:21:13.555Z,78.09
2019-05-10T20:24:17.852Z,77.96
2019-05-10T20:27:22.656Z,77.77
2019-05-10T20:30:26.937Z,77.53
2019-05-10T20:33:31.241Z,77.41
2019-05-10T20:36:35.551Z,76.89
2019-05-10T20:39:39.838Z,77.00
2019-05-10T20:42:47.155Z,77.34
2019-05-10T20:45:51.467Z,77.80
2019-05-10T20:48:55.783Z,78.19
2019-05-10T20:52:00.126Z,78.85
2019-05-10T20:55:04.552Z,79.54
2019-05-10T20:58:08.907Z,79.87
2019-05-10T21:01:13.167Z,79.97
2019-05-10T21:04:17.457Z,80.28
2019-05-10T21:07:21.746Z,80.86
2019-05-10T21:10:26.017Z,80.90
2019-05-10T21:13:30.305Z,81.06
2019-05-10T21:16:34.584Z,81.34
2019-05-10T21:19:38.863Z,81.73
2019-05-10T21:22:43.139Z,82.02
2019-05-10T21:25:47.432Z,82.19
2019-05-10T21:28:51.710Z,82.20
2019-05-10T21:31:55.983Z,82.21
2019-05-10T21:35:00.264Z,82.62
2019-05-10T21:38:04.548Z,82.89
2019-05-10T21:41:08.828Z,83.02
2019-05-10T21:44:13.116Z,83.18
2019-05-10T21:47:17.400Z,83.54
2019-05-10T21:50:21.683Z,84.00
2019-05-10T21:53:25.956Z,84.42
2019-05-10T21:56:30.235Z,84.89
2019-05-10T21:59:34.496Z,85.05
2019-05-10T22:02:38.767Z,85.29
2019-05-10T22:05:43.146Z,85.61
2019-05-10T22:08:49.759Z,85.83
2019-05-10T22:11:53.418Z,85.93
2019-05-10T22:14:57.689Z,86.04
2019-05-10T22:18:21.046Z,86.19
2019-05-10T22:21:26.105Z,86.37
2019-05-10T22:24:30.377Z,86.54
2019-05-10T22:27:34.683Z,86.88
2019-05-10T22:30:39.062Z,87.09
2019-05-10T22:33:43.340Z,87.12
2019-05-10T22:36:47.644Z,87.31
2019-05-10T22:39:51.918Z,87.49
2019-05-10T22:42:56.208Z,87.77
2019-05-10T22:46:00.501Z,87.97
2019-05-10T22:49:04.786Z,88.02
2019-05-10T22:52:09.073Z,88.00
2019-05-10T22:55:13.457Z,87.98
2019-05-10T22:58:17.797Z,87.95
2019-05-10T23:01:22.084Z,87.76
2019-05-10T23:04:26.355Z,87.38
2019-05-10T23:07:30.694Z,87.50
2019-05-10T23:10:35.003Z,87.66
2019-05-10T23:13:39.293Z,87.88
2019-05-10T23:16:43.585Z,88.01
2019-05-10T23:19:47.876Z,88.22
2019-05-10T23:22:52.170Z,88.48
2019-05-10T23:25:56.481Z,88.64
2019-05-10T23:29:00.766Z,89.05
2019-05-10T23:32:05.060Z,89.14
2019-05-10T23:35:09.458Z,88.99
2019-05-10T23:38:13.732Z,89.03
2019-05-10T23:41:18.016Z,89.23
2019-05-10T23:44:22.297Z,89.29
2019-05-10T23:47:26.632Z,89.26
2019-05-10T23:50:30.914Z,89.45
2019-05-10T23:53:35.194Z,89.53
2019-05-10T23:56:39.477Z,89.90
2019-05-10T23:59:44.046Z,89.94
